Sasovo, Russia
Current Conditions -  °F | °C
As of 4:30 AM on Friday 28 Nov 2014 (Local Time) from UWGG Reporting Station
Overcast Overcast  
Wind Chill: 13°   Ceiling: 700
Heat Index: 19°   Visibility: 6mi
Dew Point: 18°   Wind: 4mph
Humidity: 93%   Direction: NA
Pressure: 30.59"   Gusts: NA
Location:  54.35°N, 41.91°E
Report Text: UWGG 280130Z VRB02MPS 9999 OVC007 M07/M08 Q1036 NOSIG 36190042RMK QFE770
Loading
Personal Weather Stations






























Interactive Weather Map New forecast layout! Learn more

10-Day Weather Forecast

Advertisements
Track Severe Weather on mobile